createdAt,value
2018-12-18T00:01:04.471Z,13.50
2018-12-18T00:03:30.705Z,13.50
2018-12-18T00:05:56.936Z,13.50
2018-12-18T00:08:23.125Z,13.50
2018-12-18T00:10:49.381Z,13.40
2018-12-18T00:13:15.610Z,13.50
2018-12-18T00:15:41.836Z,13.50
2018-12-18T00:18:08.131Z,13.50
2018-12-18T00:20:34.490Z,13.50
2018-12-18T00:23:00.690Z,13.50
2018-12-18T00:25:26.879Z,13.40
2018-12-18T00:27:54.773Z,13.40
2018-12-18T00:30:21.063Z,13.40
2018-12-18T00:32:47.277Z,13.40
2018-12-18T00:35:13.499Z,13.40
2018-12-18T00:37:40.772Z,13.40
2018-12-18T00:40:06.968Z,13.40
2018-12-18T00:42:33.209Z,13.40
2018-12-18T00:44:59.495Z,13.40
2018-12-18T00:47:25.711Z,13.50
2018-12-18T00:49:52.108Z,13.40
2018-12-18T00:52:20.589Z,13.50
2018-12-18T00:54:46.807Z,13.50
2018-12-18T00:57:14.451Z,13.50
2018-12-18T00:59:40.703Z,13.50
2018-12-18T01:02:06.932Z,13.50
2018-12-18T01:04:33.180Z,13.50
2018-12-18T01:06:59.628Z,13.50
2018-12-18T01:09:25.819Z,13.50
2018-12-18T01:11:52.047Z,13.50
2018-12-18T01:14:18.327Z,13.50
2018-12-18T01:16:44.724Z,13.50
2018-12-18T01:19:10.896Z,13.50
2018-12-18T01:21:37.174Z,13.50
2018-12-18T01:24:03.396Z,13.60
2018-12-18T01:26:29.671Z,13.50
2018-12-18T01:28:56.047Z,13.50
2018-12-18T01:31:22.515Z,13.50
2018-12-18T01:33:48.943Z,13.60
2018-12-18T01:36:15.168Z,13.50
2018-12-18T01:38:41.388Z,13.50
2018-12-18T01:41:07.659Z,13.40
2018-12-18T01:43:33.893Z,13.40
2018-12-18T01:46:00.260Z,13.50
2018-12-18T01:48:26.488Z,13.40
2018-12-18T01:50:52.723Z,13.40
2018-12-18T01:53:18.948Z,13.40
2018-12-18T01:55:45.404Z,13.40
2018-12-18T01:58:12.589Z,13.40
2018-12-18T02:00:38.866Z,13.40
2018-12-18T02:03:05.110Z,13.40
2018-12-18T02:05:31.335Z,13.40
2018-12-18T02:07:57.512Z,13.40
2018-12-18T02:10:24.594Z,13.40
2018-12-18T02:12:51.334Z,13.40
2018-12-18T02:15:17.663Z,13.50
2018-12-18T02:17:43.910Z,13.40
2018-12-18T02:20:11.779Z,13.40
2018-12-18T02:22:38.799Z,13.50
2018-12-18T02:25:05.027Z,13.50
2018-12-18T02:27:32.932Z,13.50
2018-12-18T02:29:59.136Z,13.50
2018-12-18T02:32:25.370Z,13.50
2018-12-18T02:34:51.555Z,13.50
2018-12-18T02:37:17.749Z,13.50
2018-12-18T02:39:44.054Z,13.50
2018-12-18T02:42:11.307Z,13.50
2018-12-18T02:44:37.537Z,13.50
2018-12-18T02:47:03.753Z,13.50
2018-12-18T02:49:29.982Z,13.50
2018-12-18T02:51:56.212Z,13.60
2018-12-18T02:54:22.409Z,13.50
2018-12-18T02:56:48.694Z,13.60
2018-12-18T02:59:14.891Z,13.60
2018-12-18T03:01:41.127Z,13.60
2018-12-18T03:04:08.094Z,13.70
2018-12-18T03:06:35.246Z,13.70
2018-12-18T03:09:01.904Z,13.70
2018-12-18T03:11:28.129Z,13.70
2018-12-18T03:13:54.519Z,13.70
2018-12-18T03:16:20.753Z,13.70
2018-12-18T03:18:46.969Z,13.70
2018-12-18T03:21:13.195Z,13.60
2018-12-18T03:23:39.882Z,13.70
2018-12-18T03:26:06.288Z,13.70
2018-12-18T03:28:32.466Z,13.70
2018-12-18T03:30:58.723Z,13.70
2018-12-18T03:33:24.956Z,13.60
2018-12-18T03:35:51.196Z,13.60
2018-12-18T03:38:17.371Z,13.60
2018-12-18T03:40:43.647Z,13.60
2018-12-18T03:43:09.881Z,13.60
2018-12-18T03:45:36.085Z,13.60
2018-12-18T03:48:02.288Z,13.60
2018-12-18T03:50:28.545Z,13.60
2018-12-18T03:52:54.759Z,13.60
2018-12-18T03:55:21.000Z,13.50
2018-12-18T03:57:47.280Z,13.50
2018-12-18T04:00:13.671Z,13.50
2018-12-18T04:02:39.842Z,13.50
2018-12-18T04:05:06.035Z,13.50
2018-12-18T04:07:32.335Z,13.50
2018-12-18T04:09:58.576Z,13.50
2018-12-18T04:12:24.802Z,13.50
2018-12-18T04:14:51.057Z,13.60
2018-12-18T04:17:18.088Z,13.60
2018-12-18T04:19:44.323Z,13.60
2018-12-18T04:22:10.524Z,13.60
2018-12-18T04:24:36.767Z,13.60
2018-12-18T04:27:02.983Z,13.60
2018-12-18T04:29:29.232Z,13.50
2018-12-18T04:31:56.930Z,13.50
2018-12-18T04:34:23.321Z,13.60
2018-12-18T04:36:49.600Z,13.60
2018-12-18T04:39:15.780Z,13.60
2018-12-18T04:41:42.004Z,13.70
2018-12-18T04:44:08.223Z,13.70
2018-12-18T04:46:34.414Z,13.70
2018-12-18T04:49:00.679Z,13.70
2018-12-18T04:51:26.932Z,13.70
2018-12-18T04:53:53.143Z,13.80
2018-12-18T04:56:19.373Z,13.80
2018-12-18T04:58:46.271Z,13.80
2018-12-18T05:01:12.639Z,13.80
2018-12-18T05:03:38.867Z,13.80
2018-12-18T05:06:05.092Z,13.80
2018-12-18T05:08:31.315Z,13.80
2018-12-18T05:10:57.549Z,13.80
2018-12-18T05:13:23.798Z,13.80
2018-12-18T05:15:51.473Z,13.90
2018-12-18T05:18:17.680Z,13.90
2018-12-18T05:20:43.931Z,13.90
2018-12-18T05:23:10.327Z,13.90
2018-12-18T05:25:36.584Z,13.90
2018-12-18T05:28:02.793Z,13.90
2018-12-18T05:30:29.015Z,13.90
2018-12-18T05:32:55.193Z,13.90
2018-12-18T05:35:22.314Z,13.90
2018-12-18T05:37:50.018Z,13.90
2018-12-18T05:40:16.415Z,13.90
2018-12-18T05:42:42.645Z,13.90
2018-12-18T05:45:08.838Z,13.90
2018-12-18T05:47:35.082Z,13.90
2018-12-18T05:50:01.290Z,13.90
2018-12-18T05:52:27.537Z,13.90
2018-12-18T05:54:53.766Z,13.90
2018-12-18T05:57:21.488Z,13.90
2018-12-18T05:59:47.903Z,13.90
2018-12-18T06:02:14.122Z,13.90
2018-12-18T06:04:40.508Z,13.90
2018-12-18T06:07:06.740Z,13.90
2018-12-18T06:09:32.977Z,14.00
2018-12-18T06:11:59.198Z,14.00
2018-12-18T06:14:25.453Z,14.00
2018-12-18T06:16:51.867Z,14.00
2018-12-18T06:19:19.551Z,14.00
2018-12-18T06:21:45.743Z,14.00
2018-12-18T06:24:11.998Z,14.00
2018-12-18T06:26:38.197Z,14.00
2018-12-18T06:29:04.444Z,14.00
2018-12-18T06:31:30.664Z,14.00
2018-12-18T06:33:57.707Z,14.00
2018-12-18T06:36:23.948Z,14.00
2018-12-18T06:38:50.173Z,14.00
2018-12-18T06:41:16.391Z,14.00
2018-12-18T06:43:42.616Z,14.00
2018-12-18T06:46:08.858Z,14.00
2018-12-18T06:48:36.725Z,14.00
2018-12-18T06:51:03.875Z,14.00
2018-12-18T06:53:30.179Z,14.00
2018-12-18T06:55:56.437Z,14.00
2018-12-18T06:58:22.671Z,14.00
2018-12-18T07:00:49.703Z,14.00
2018-12-18T07:03:15.943Z,14.00
2018-12-18T07:05:42.142Z,14.00
2018-12-18T07:08:08.375Z,14.00
2018-12-18T07:10:34.617Z,14.00
2018-12-18T07:13:00.879Z,14.00
2018-12-18T07:15:27.266Z,14.00
2018-12-18T07:17:53.551Z,14.00
2018-12-18T07:20:20.035Z,14.00
2018-12-18T07:22:46.396Z,14.00
2018-12-18T07:25:12.805Z,14.00
2018-12-18T07:27:38.976Z,14.00
2018-12-18T07:30:05.943Z,14.00
2018-12-18T07:32:32.146Z,14.00
2018-12-18T07:34:59.195Z,14.00
2018-12-18T07:37:25.580Z,14.00
2018-12-18T07:39:51.857Z,14.10
2018-12-18T07:42:18.041Z,14.10
2018-12-18T07:44:44.261Z,14.10
2018-12-18T07:47:10.500Z,14.20
2018-12-18T07:49:36.930Z,14.20
2018-12-18T07:52:03.155Z,14.30
2018-12-18T07:54:29.345Z,14.30
2018-12-18T07:56:55.591Z,14.40
2018-12-18T07:59:21.835Z,14.40
2018-12-18T08:01:48.115Z,14.40
2018-12-18T08:04:14.501Z,14.40
2018-12-18T08:06:40.728Z,14.50
2018-12-18T08:09:07.004Z,14.40
2018-12-18T08:11:33.391Z,14.40
2018-12-18T08:13:59.588Z,14.40
2018-12-18T08:16:25.840Z,14.50
2018-12-18T08:18:52.075Z,14.50
2018-12-18T08:21:18.300Z,14.50
2018-12-18T08:23:44.523Z,14.60
2018-12-18T08:26:10.710Z,14.60
2018-12-18T08:28:37.000Z,14.70
2018-12-18T08:31:03.194Z,14.60
2018-12-18T08:33:29.455Z,14.60
2018-12-18T08:35:57.323Z,14.60
2018-12-18T08:38:23.579Z,14.60
2018-12-18T08:40:49.992Z,14.60
2018-12-18T08:43:16.199Z,14.60
2018-12-18T08:45:42.431Z,14.60
2018-12-18T08:48:08.657Z,14.70
2018-12-18T08:50:34.878Z,14.60
2018-12-18T08:53:01.389Z,14.70
2018-12-18T08:55:27.802Z,14.70
2018-12-18T08:57:54.184Z,14.70
2018-12-18T09:00:20.450Z,14.70
2018-12-18T09:02:46.827Z,14.70
2018-12-18T09:05:13.002Z,14.80
2018-12-18T09:07:40.120Z,14.80
2018-12-18T09:10:06.336Z,14.80
2018-12-18T09:12:32.828Z,14.80
2018-12-18T09:14:59.224Z,14.80
2018-12-18T09:17:27.142Z,14.90
2018-12-18T09:19:53.557Z,14.90
2018-12-18T09:22:19.814Z,14.90
2018-12-18T09:24:46.163Z,14.80
2018-12-18T09:27:12.398Z,14.80
2018-12-18T09:29:40.108Z,14.90
2018-12-18T09:32:06.311Z,14.90
2018-12-18T09:34:32.532Z,14.90
2018-12-18T09:36:58.736Z,14.90
2018-12-18T09:39:24.985Z,14.90
2018-12-18T09:41:51.208Z,14.90
2018-12-18T09:44:17.443Z,15.00
2018-12-18T09:46:43.681Z,15.00
2018-12-18T09:49:09.900Z,14.90
2018-12-18T09:51:36.872Z,14.90
2018-12-18T09:54:03.874Z,15.00
2018-12-18T09:56:30.082Z,15.00
2018-12-18T09:58:56.284Z,15.00
2018-12-18T10:01:22.498Z,15.00
2018-12-18T10:03:48.728Z,15.00
2018-12-18T10:06:14.911Z,14.90
2018-12-18T10:08:41.111Z,15.00
2018-12-18T10:11:07.295Z,15.00
2018-12-18T10:13:33.487Z,15.00
2018-12-18T10:15:59.670Z,15.00
2018-12-18T10:18:25.932Z,15.00
2018-12-18T10:20:52.134Z,15.00
2018-12-18T10:23:18.361Z,15.00
2018-12-18T10:25:44.566Z,15.00
2018-12-18T10:28:10.821Z,15.00
2018-12-18T10:30:37.045Z,15.10
2018-12-18T10:33:03.243Z,15.00
2018-12-18T10:35:30.959Z,15.10
2018-12-18T10:37:57.165Z,15.10
2018-12-18T10:40:23.455Z,15.10
2018-12-18T10:42:49.627Z,15.10
2018-12-18T10:45:15.825Z,15.10
2018-12-18T10:47:42.012Z,15.10
2018-12-18T10:50:08.206Z,15.10
2018-12-18T10:52:34.398Z,15.10
2018-12-18T10:55:00.640Z,15.10
2018-12-18T10:57:26.815Z,15.10
2018-12-18T10:59:53.022Z,15.10
2018-12-18T11:02:19.203Z,15.20
2018-12-18T11:04:45.421Z,15.20
2018-12-18T11:07:11.648Z,15.20
2018-12-18T11:09:37.851Z,15.30
2018-12-18T11:12:04.113Z,15.30
2018-12-18T11:14:31.834Z,15.30
2018-12-18T11:16:58.048Z,15.30
2018-12-18T11:19:24.286Z,15.30
2018-12-18T11:21:50.487Z,15.30
2018-12-18T11:24:16.675Z,15.30
2018-12-18T11:26:42.889Z,15.30
2018-12-18T11:29:09.144Z,15.30
2018-12-18T11:31:35.377Z,15.30
2018-12-18T11:34:01.564Z,15.30
2018-12-18T11:36:27.748Z,15.30
2018-12-18T11:38:53.952Z,15.40
2018-12-18T11:41:20.936Z,15.40
2018-12-18T11:43:47.132Z,15.40
2018-12-18T11:46:13.355Z,15.40
2018-12-18T11:48:39.543Z,15.40
2018-12-18T11:51:05.755Z,15.40
2018-12-18T11:53:32.713Z,15.40
2018-12-18T11:55:58.919Z,15.40
2018-12-18T11:58:25.122Z,15.40
2018-12-18T12:00:51.344Z,15.30
2018-12-18T12:03:17.532Z,15.40
2018-12-18T12:05:43.746Z,15.40
2018-12-18T12:08:09.928Z,15.40
2018-12-18T12:10:36.124Z,15.40
2018-12-18T12:13:02.363Z,15.40
2018-12-18T12:15:28.580Z,15.50
2018-12-18T12:17:54.785Z,15.50
2018-12-18T12:20:21.032Z,15.50
2018-12-18T12:22:47.227Z,15.50
2018-12-18T12:25:13.431Z,15.50
2018-12-18T12:27:39.644Z,15.50
2018-12-18T12:30:05.857Z,15.60
2018-12-18T12:32:32.164Z,15.60
2018-12-18T12:34:58.381Z,15.60
2018-12-18T12:37:24.571Z,15.60
2018-12-18T12:39:50.755Z,15.50
2018-12-18T12:42:16.947Z,15.60
2018-12-18T12:44:43.908Z,15.50
2018-12-18T12:47:10.113Z,15.50
2018-12-18T12:49:36.303Z,15.50
2018-12-18T12:52:02.618Z,15.60
2018-12-18T12:54:28.830Z,15.50
2018-12-18T12:56:55.061Z,15.60
2018-12-18T12:59:21.246Z,15.60
2018-12-18T13:01:47.707Z,15.60
2018-12-18T13:04:13.955Z,15.60
2018-12-18T13:06:40.192Z,15.70
2018-12-18T13:09:06.597Z,15.70
2018-12-18T13:11:33.720Z,15.70
2018-12-18T13:13:59.904Z,15.70
2018-12-18T13:16:26.251Z,15.70
2018-12-18T13:18:52.449Z,15.70
2018-12-18T13:21:18.698Z,15.60
2018-12-18T13:23:44.937Z,15.60
2018-12-18T13:26:11.112Z,15.60
2018-12-18T13:28:38.612Z,15.70
2018-12-18T13:31:05.112Z,15.70
2018-12-18T13:33:31.339Z,15.70
2018-12-18T13:35:57.520Z,15.70
2018-12-18T13:38:23.735Z,15.70
2018-12-18T13:40:50.788Z,15.70
2018-12-18T13:43:17.048Z,15.70
2018-12-18T13:45:43.299Z,15.80
2018-12-18T13:48:09.482Z,15.70
2018-12-18T13:50:35.753Z,15.80
2018-12-18T13:53:01.989Z,15.80
2018-12-18T13:55:28.206Z,15.80
2018-12-18T13:57:54.387Z,15.80
2018-12-18T14:00:20.625Z,15.80
2018-12-18T14:02:47.483Z,15.80
2018-12-18T14:05:13.713Z,15.80
2018-12-18T14:07:40.432Z,15.80
2018-12-18T14:10:07.631Z,15.80
2018-12-18T14:12:33.815Z,15.80
2018-12-18T14:15:00.061Z,15.80
2018-12-18T14:17:26.237Z,15.80
2018-12-18T14:19:52.426Z,15.80
2018-12-18T14:22:19.387Z,15.90
2018-12-18T14:24:45.591Z,15.80
2018-12-18T14:27:11.813Z,15.80
2018-12-18T14:29:37.987Z,15.80
2018-12-18T14:32:04.192Z,15.80
2018-12-18T14:34:31.171Z,15.80
2018-12-18T14:36:57.577Z,15.80
2018-12-18T14:39:25.675Z,15.90
2018-12-18T14:41:51.872Z,15.80
2018-12-18T14:44:18.101Z,15.90
2018-12-18T14:46:44.325Z,15.90
2018-12-18T14:49:10.547Z,15.90
2018-12-18T14:51:36.755Z,15.80
2018-12-18T14:54:04.470Z,15.80
2018-12-18T14:56:30.687Z,15.80
2018-12-18T14:58:56.891Z,15.90
2018-12-18T15:01:23.104Z,15.90
2018-12-18T15:03:50.206Z,15.90
2018-12-18T15:06:16.628Z,15.90
2018-12-18T15:08:42.810Z,15.90
2018-12-18T15:11:09.010Z,15.90
2018-12-18T15:13:35.275Z,15.90
2018-12-18T15:16:02.156Z,16.00
2018-12-18T15:18:28.359Z,15.90
2018-12-18T15:20:54.574Z,15.90
2018-12-18T15:23:20.768Z,15.90
2018-12-18T15:25:47.026Z,15.90
2018-12-18T15:28:13.286Z,15.90
2018-12-18T15:30:39.856Z,16.00
2018-12-18T15:33:06.060Z,15.90
2018-12-18T15:35:32.396Z,15.90
2018-12-18T15:37:58.604Z,16.00
2018-12-18T15:40:24.819Z,16.00
2018-12-18T15:42:51.007Z,16.00
2018-12-18T15:45:17.289Z,16.00
2018-12-18T15:47:43.506Z,16.00
2018-12-18T15:50:09.790Z,15.90
2018-12-18T15:52:36.185Z,16.00
2018-12-18T15:55:02.588Z,16.00
2018-12-18T15:57:29.050Z,16.00
2018-12-18T15:59:55.279Z,16.00
2018-12-18T16:02:24.273Z,16.10
2018-12-18T16:04:47.939Z,16.00
2018-12-18T16:07:16.197Z,16.10
2018-12-18T16:09:40.551Z,16.10
2018-12-18T16:12:06.744Z,16.00
2018-12-18T16:14:33.682Z,16.10
2018-12-18T16:16:59.903Z,16.10
2018-12-18T16:19:26.122Z,16.10
2018-12-18T16:21:52.527Z,16.10
2018-12-18T16:24:18.790Z,16.10
2018-12-18T16:26:44.986Z,16.10
2018-12-18T16:29:11.219Z,16.10
2018-12-18T16:31:37.436Z,16.10
2018-12-18T16:34:03.674Z,16.10
2018-12-18T16:36:29.872Z,16.10
2018-12-18T16:38:56.125Z,16.10
2018-12-18T16:41:22.389Z,16.10
2018-12-18T16:43:48.787Z,16.10
2018-12-18T16:46:15.032Z,16.20
2018-12-18T16:48:41.283Z,16.20
2018-12-18T16:51:07.684Z,16.20
2018-12-18T16:53:36.174Z,16.30
2018-12-18T16:56:02.601Z,16.20
2018-12-18T16:58:29.034Z,16.30
2018-12-18T17:00:55.443Z,16.20
2018-12-18T17:03:21.721Z,16.30
2018-12-18T17:05:48.103Z,16.30
2018-12-18T17:08:14.335Z,16.30
2018-12-18T17:10:42.207Z,16.30
2018-12-18T17:13:08.430Z,16.30
2018-12-18T17:15:34.655Z,16.30
2018-12-18T17:18:00.911Z,16.30
2018-12-18T17:20:27.306Z,16.20
2018-12-18T17:22:53.534Z,16.30
2018-12-18T17:25:19.814Z,16.30
2018-12-18T17:27:46.242Z,16.30
2018-12-18T17:30:12.667Z,16.40
2018-12-18T17:32:39.086Z,16.30
2018-12-18T17:35:05.326Z,16.30
2018-12-18T17:37:36.138Z,16.30
2018-12-18T17:39:58.610Z,16.30
2018-12-18T17:42:24.825Z,16.40
2018-12-18T17:44:52.687Z,16.30
2018-12-18T17:47:20.546Z,16.40
2018-12-18T17:49:46.783Z,16.40
2018-12-18T17:52:12.999Z,16.40
2018-12-18T17:54:39.211Z,16.40
2018-12-18T17:57:05.711Z,16.40
2018-12-18T17:59:32.103Z,16.40
2018-12-18T18:01:58.548Z,16.40
2018-12-18T18:04:24.963Z,16.40
2018-12-18T18:06:51.187Z,16.40
2018-12-18T18:09:17.425Z,16.40
2018-12-18T18:11:43.835Z,16.40
2018-12-18T18:14:10.080Z,16.40
2018-12-18T18:16:36.355Z,16.40
2018-12-18T18:19:02.975Z,16.40
2018-12-18T18:21:29.384Z,16.50
2018-12-18T18:23:55.599Z,16.40
2018-12-18T18:26:23.500Z,16.50
2018-12-18T18:28:49.943Z,16.50
2018-12-18T18:31:16.337Z,16.40
2018-12-18T18:33:42.792Z,16.50
2018-12-18T18:36:09.232Z,16.50
2018-12-18T18:38:35.644Z,16.50
2018-12-18T18:41:01.886Z,16.50
2018-12-18T18:43:28.099Z,16.50
2018-12-18T18:45:55.860Z,16.50
2018-12-18T18:48:22.063Z,16.50
2018-12-18T18:50:48.284Z,16.50
2018-12-18T18:53:14.464Z,16.40
2018-12-18T18:55:40.683Z,16.40
2018-12-18T18:58:06.935Z,16.40
2018-12-18T19:00:33.119Z,16.40
2018-12-18T19:02:59.328Z,16.40
2018-12-18T19:05:25.547Z,16.40
2018-12-18T19:07:56.507Z,16.40
2018-12-18T19:10:18.296Z,16.40
2018-12-18T19:12:45.405Z,16.40
2018-12-18T19:15:11.592Z,16.40
2018-12-18T19:17:38.106Z,16.40
2018-12-18T19:20:04.331Z,16.30
2018-12-18T19:22:30.578Z,16.30
2018-12-18T19:24:56.808Z,16.30
2018-12-18T19:27:23.058Z,16.30
2018-12-18T19:29:50.027Z,16.30
2018-12-18T19:32:16.275Z,16.30
2018-12-18T19:34:42.727Z,16.30
2018-12-18T19:37:08.925Z,16.30
2018-12-18T19:39:35.143Z,16.30
2018-12-18T19:42:02.856Z,16.30
2018-12-18T19:44:29.040Z,16.30
2018-12-18T19:46:55.250Z,16.30
2018-12-18T19:49:22.763Z,16.30
2018-12-18T19:51:48.967Z,16.30
2018-12-18T19:54:15.166Z,16.20
2018-12-18T19:56:41.444Z,16.30
2018-12-18T19:59:14.111Z,16.30
2018-12-18T20:01:41.106Z,16.20
2018-12-18T20:04:07.346Z,16.20
2018-12-18T20:06:33.749Z,16.20
2018-12-18T20:09:00.007Z,16.20
2018-12-18T20:11:26.203Z,16.20
2018-12-18T20:13:52.432Z,16.20
2018-12-18T20:16:18.616Z,16.20
2018-12-18T20:18:44.823Z,16.20
2018-12-18T20:21:11.014Z,16.20
2018-12-18T20:23:37.555Z,16.20
2018-12-18T20:26:03.802Z,16.20
2018-12-18T20:28:29.991Z,16.20
2018-12-18T20:30:56.183Z,16.20
2018-12-18T20:33:22.383Z,16.20
2018-12-18T20:35:48.670Z,16.20
2018-12-18T20:38:16.926Z,16.20
2018-12-18T20:40:41.153Z,16.20
2018-12-18T20:43:07.375Z,16.10
2018-12-18T20:45:33.598Z,16.10
2018-12-18T20:47:59.828Z,16.20
2018-12-18T20:50:26.049Z,16.20
2018-12-18T20:52:52.236Z,16.10
2018-12-18T20:55:18.455Z,16.10
2018-12-18T20:57:44.662Z,16.10
2018-12-18T21:00:11.571Z,16.10
2018-12-18T21:02:37.779Z,16.10
2018-12-18T21:05:04.664Z,16.10
2018-12-18T21:07:30.886Z,16.10
2018-12-18T21:09:57.087Z,16.10
2018-12-18T21:12:23.312Z,16.10
2018-12-18T21:14:49.488Z,16.10
2018-12-18T21:17:15.738Z,16.10
2018-12-18T21:19:42.014Z,16.10
2018-12-18T21:22:08.260Z,16.10
2018-12-18T21:24:34.434Z,16.10
2018-12-18T21:27:00.636Z,16.10
2018-12-18T21:29:26.890Z,16.00
2018-12-18T21:31:53.087Z,16.00
2018-12-18T21:34:19.276Z,16.00
2018-12-18T21:36:46.223Z,16.00
2018-12-18T21:39:12.443Z,16.00
2018-12-18T21:41:38.624Z,16.00
2018-12-18T21:44:04.807Z,16.00
2018-12-18T21:46:31.835Z,16.00
2018-12-18T21:48:58.781Z,16.00
2018-12-18T21:51:25.230Z,16.00
2018-12-18T21:53:51.430Z,16.00
2018-12-18T21:56:17.619Z,16.00
2018-12-18T21:58:43.860Z,16.00
2018-12-18T22:01:10.063Z,16.00
2018-12-18T22:03:36.275Z,16.00
2018-12-18T22:06:02.444Z,16.00
2018-12-18T22:08:28.659Z,16.00
2018-12-18T22:10:54.852Z,16.00
2018-12-18T22:13:21.065Z,16.00
2018-12-18T22:15:47.235Z,16.00
2018-12-18T22:18:13.459Z,16.00
2018-12-18T22:20:39.721Z,16.00
2018-12-18T22:23:05.948Z,16.00
2018-12-18T22:25:32.172Z,16.00
2018-12-18T22:27:58.374Z,16.00
2018-12-18T22:30:24.552Z,16.00
2018-12-18T22:32:50.723Z,16.00
2018-12-18T22:35:17.134Z,16.00
2018-12-18T22:37:43.337Z,16.00
2018-12-18T22:40:09.552Z,16.00
2018-12-18T22:42:35.756Z,16.00
2018-12-18T22:45:02.623Z,16.00
2018-12-18T22:47:28.811Z,16.00
2018-12-18T22:49:55.102Z,16.00
2018-12-18T22:52:21.283Z,16.00
2018-12-18T22:54:47.840Z,16.00
2018-12-18T22:57:14.039Z,16.00
2018-12-18T22:59:40.239Z,16.00
2018-12-18T23:02:07.017Z,16.00
2018-12-18T23:04:33.225Z,16.00
2018-12-18T23:06:59.411Z,16.00
2018-12-18T23:09:26.372Z,16.00
2018-12-18T23:11:52.610Z,15.90
2018-12-18T23:14:18.804Z,15.90
2018-12-18T23:16:46.499Z,15.90
2018-12-18T23:19:12.723Z,15.90
2018-12-18T23:21:38.920Z,15.90
2018-12-18T23:24:05.111Z,15.90
2018-12-18T23:26:31.333Z,15.90
2018-12-18T23:28:57.516Z,15.90
2018-12-18T23:31:24.476Z,15.90
2018-12-18T23:33:50.680Z,15.90
2018-12-18T23:36:17.266Z,15.90
2018-12-18T23:38:43.469Z,15.90
2018-12-18T23:41:09.750Z,15.90
2018-12-18T23:43:35.947Z,15.90
2018-12-18T23:46:02.187Z,15.90
2018-12-18T23:48:28.409Z,15.90
2018-12-18T23:50:54.615Z,15.90
2018-12-18T23:53:20.823Z,15.90
2018-12-18T23:55:47.803Z,15.90
2018-12-18T23:58:13.995Z,15.90
